createdAt,value
2022-10-12T00:00:10.893Z,22.00
2022-10-12T00:02:44.917Z,22.00
2022-10-12T00:05:14.074Z,22.00
2022-10-12T00:07:44.724Z,21.90
2022-10-12T00:10:13.939Z,21.90
2022-10-12T00:12:43.184Z,21.90
2022-10-12T00:15:12.836Z,21.90
2022-10-12T00:17:42.052Z,21.90
2022-10-12T00:20:12.123Z,21.90
2022-10-12T00:22:41.412Z,21.90
2022-10-12T00:25:12.061Z,21.90
2022-10-12T00:27:41.234Z,22.00
2022-10-12T00:30:12.011Z,21.90
2022-10-12T00:32:41.170Z,21.90
2022-10-12T00:35:10.717Z,21.90
2022-10-12T00:37:40.248Z,21.90
2022-10-12T00:40:12.482Z,21.90
2022-10-12T00:42:41.795Z,21.90
2022-10-12T00:45:11.745Z,21.90
2022-10-12T00:47:45.184Z,21.90
2022-10-12T00:50:17.484Z,21.90
2022-10-12T00:52:51.415Z,21.90
2022-10-12T00:55:25.137Z,21.90
2022-10-12T00:57:56.592Z,21.90
2022-10-12T01:00:26.202Z,21.90
2022-10-12T01:02:56.548Z,21.90
2022-10-12T01:05:26.243Z,21.90
2022-10-12T01:07:55.581Z,21.90
2022-10-12T01:10:26.173Z,21.90
2022-10-12T01:12:55.615Z,21.90
2022-10-12T01:15:30.645Z,21.90
2022-10-12T01:18:06.870Z,21.90
2022-10-12T01:20:55.766Z,21.90
2022-10-12T01:23:53.194Z,21.90
2022-10-12T01:26:53.463Z,21.90
2022-10-12T01:29:39.425Z,21.90
2022-10-12T01:32:16.635Z,21.80
2022-10-12T01:34:49.631Z,21.80
2022-10-12T01:37:25.005Z,21.80
2022-10-12T01:39:57.268Z,21.80
2022-10-12T01:42:30.588Z,21.80
2022-10-12T01:45:04.559Z,21.80
2022-10-12T01:47:36.917Z,21.80
2022-10-12T01:50:08.660Z,21.80
2022-10-12T01:52:42.775Z,21.80
2022-10-12T01:55:24.681Z,21.80
2022-10-12T01:58:08.074Z,21.80
2022-10-12T02:00:44.155Z,21.80
2022-10-12T02:03:21.721Z,21.80
2022-10-12T02:05:56.662Z,21.80
2022-10-12T02:08:29.331Z,21.80
2022-10-12T02:11:05.028Z,21.80
2022-10-12T02:13:40.027Z,21.80
2022-10-12T02:16:11.910Z,21.80
2022-10-12T02:18:47.950Z,21.80
2022-10-12T02:21:20.242Z,21.80
2022-10-12T02:23:51.607Z,21.80
2022-10-12T02:26:22.892Z,21.80
2022-10-12T02:28:52.515Z,21.80
2022-10-12T02:31:33.848Z,21.80
2022-10-12T02:34:10.499Z,21.80
2022-10-12T02:36:45.341Z,21.70
2022-10-12T02:39:17.764Z,21.70
2022-10-12T02:41:52.423Z,21.70
2022-10-12T02:44:25.440Z,21.70
2022-10-12T02:46:55.907Z,21.70
2022-10-12T02:49:28.278Z,21.70
2022-10-12T02:51:58.890Z,21.70
2022-10-12T02:54:28.254Z,21.70
2022-10-12T02:56:57.759Z,21.70
2022-10-12T02:59:26.918Z,21.70
2022-10-12T03:01:56.072Z,21.70
2022-10-12T03:04:26.796Z,21.70
2022-10-12T03:06:56.074Z,21.70
2022-10-12T03:09:25.280Z,21.70
2022-10-12T03:11:54.392Z,21.70
2022-10-12T03:14:23.843Z,21.70
2022-10-12T03:16:53.015Z,21.70
2022-10-12T03:19:22.113Z,21.70
2022-10-12T03:21:52.726Z,21.70
2022-10-12T03:24:22.000Z,21.70
2022-10-12T03:26:51.172Z,21.70
2022-10-12T03:29:20.301Z,21.70
2022-10-12T03:31:49.466Z,21.70
2022-10-12T03:34:18.671Z,21.70
2022-10-12T03:36:47.900Z,21.70
2022-10-12T03:39:18.420Z,21.70
2022-10-12T03:41:47.561Z,21.70
2022-10-12T03:44:16.819Z,21.70
2022-10-12T03:46:46.222Z,21.70
2022-10-12T03:49:15.357Z,21.70
2022-10-12T03:51:44.749Z,21.70
2022-10-12T03:54:13.996Z,21.70
2022-10-12T03:56:44.706Z,21.70
2022-10-12T03:59:13.919Z,21.70
2022-10-12T04:01:43.149Z,21.70
2022-10-12T04:04:12.899Z,21.60
2022-10-12T04:06:42.075Z,21.60
2022-10-12T04:09:11.234Z,21.70
2022-10-12T04:11:40.364Z,21.60
2022-10-12T04:14:11.221Z,21.60
2022-10-12T04:16:40.639Z,21.70
2022-10-12T04:19:13.430Z,21.70
2022-10-12T04:21:42.805Z,21.90
2022-10-12T04:24:12.054Z,22.00
2022-10-12T04:26:41.196Z,22.10
2022-10-12T04:29:14.116Z,22.20
2022-10-12T04:31:43.654Z,22.20
2022-10-12T04:34:13.121Z,22.30
2022-10-12T04:36:42.327Z,22.30
2022-10-12T04:39:11.474Z,22.40
2022-10-12T04:41:40.816Z,22.40
2022-10-12T04:44:11.664Z,22.40
2022-10-12T04:46:40.904Z,22.40
2022-10-12T04:49:10.087Z,22.50
2022-10-12T04:51:39.214Z,22.50
2022-10-12T04:54:08.511Z,22.50
2022-10-12T04:56:38.022Z,22.60
2022-10-12T04:59:07.458Z,22.60
2022-10-12T05:01:38.337Z,22.70
2022-10-12T05:04:07.634Z,22.70
2022-10-12T05:06:37.044Z,22.70
2022-10-12T05:09:06.389Z,22.80
2022-10-12T05:11:35.700Z,22.70
2022-10-12T05:14:04.941Z,22.70
2022-10-12T05:16:34.093Z,22.60
2022-10-12T05:19:04.787Z,22.60
2022-10-12T05:21:34.582Z,22.50
2022-10-12T05:24:03.936Z,22.50
2022-10-12T05:26:33.056Z,22.50
2022-10-12T05:29:02.388Z,22.40
2022-10-12T05:31:31.822Z,22.40
2022-10-12T05:34:01.234Z,22.40
2022-10-12T05:36:31.988Z,22.30
2022-10-12T05:39:01.217Z,22.30
2022-10-12T05:41:30.473Z,22.30
2022-10-12T05:43:59.710Z,22.30
2022-10-12T05:46:29.011Z,22.30
2022-10-12T05:48:58.234Z,22.20
2022-10-12T05:51:29.061Z,22.20
2022-10-12T05:54:00.046Z,22.20
2022-10-12T05:56:29.267Z,22.20
2022-10-12T05:58:58.455Z,22.20
2022-10-12T06:01:27.807Z,22.20
2022-10-12T06:03:57.249Z,22.20
2022-10-12T06:06:26.446Z,22.20
2022-10-12T06:08:55.584Z,22.20
2022-10-12T06:11:26.211Z,22.20
2022-10-12T06:13:55.557Z,22.20
2022-10-12T06:16:25.016Z,22.20
2022-10-12T06:18:54.817Z,22.20
2022-10-12T06:21:39.231Z,22.20
2022-10-12T06:24:08.811Z,22.20
2022-10-12T06:26:39.452Z,22.20
2022-10-12T06:29:09.009Z,22.20
2022-10-12T06:31:39.928Z,22.20
2022-10-12T06:34:09.722Z,22.20
2022-10-12T06:36:38.883Z,22.20
2022-10-12T06:39:08.013Z,22.20
2022-10-12T06:41:39.198Z,22.20
2022-10-12T06:44:11.421Z,22.20
2022-10-12T06:46:40.659Z,22.10
2022-10-12T06:49:10.437Z,22.10
2022-10-12T06:51:39.616Z,22.10
2022-10-12T06:54:08.888Z,22.10
2022-10-12T06:56:40.144Z,22.10
2022-10-12T06:59:09.610Z,22.10
2022-10-12T07:01:39.059Z,22.10
2022-10-12T07:04:08.383Z,22.10
2022-10-12T07:06:37.777Z,22.10
2022-10-12T07:09:07.088Z,22.10
2022-10-12T07:11:36.291Z,22.10
2022-10-12T07:14:06.981Z,22.10
2022-10-12T07:16:36.438Z,22.20
2022-10-12T07:19:05.693Z,22.20
2022-10-12T07:21:35.032Z,22.20
2022-10-12T07:24:04.248Z,22.20
2022-10-12T07:26:33.524Z,22.20
2022-10-12T07:29:03.482Z,22.20
2022-10-12T07:31:34.338Z,22.10
2022-10-12T07:34:03.809Z,22.10
2022-10-12T07:36:57.565Z,22.10
2022-10-12T07:39:22.977Z,22.10
2022-10-12T07:41:52.715Z,22.10
2022-10-12T07:44:22.763Z,22.10
2022-10-12T07:46:53.837Z,22.10
2022-10-12T07:49:23.228Z,22.10
2022-10-12T07:51:52.522Z,22.10
2022-10-12T07:54:28.250Z,22.10
2022-10-12T07:56:58.797Z,22.10
2022-10-12T07:59:28.359Z,22.10
2022-10-12T08:01:59.234Z,22.10
2022-10-12T08:04:28.834Z,22.10
2022-10-12T08:06:59.764Z,22.10
2022-10-12T08:09:29.087Z,22.10
2022-10-12T08:11:58.535Z,22.10
2022-10-12T08:14:27.977Z,22.10
2022-10-12T08:16:58.738Z,22.10
2022-10-12T08:19:32.983Z,22.10
2022-10-12T08:22:04.674Z,22.10
2022-10-12T08:24:36.486Z,22.10
2022-10-12T08:27:06.152Z,22.10
2022-10-12T08:29:35.617Z,22.10
2022-10-12T08:32:06.960Z,22.10
2022-10-12T08:34:36.399Z,22.10
2022-10-12T08:37:06.011Z,22.10
2022-10-12T08:39:35.568Z,22.10
2022-10-12T08:42:16.693Z,22.10
2022-10-12T08:45:00.649Z,22.10
2022-10-12T08:47:40.050Z,22.10
2022-10-12T08:50:18.341Z,22.10
2022-10-12T08:52:56.734Z,22.10
2022-10-12T08:55:35.756Z,22.10
2022-10-12T08:58:05.238Z,22.10
2022-10-12T09:00:36.203Z,22.10
2022-10-12T09:03:19.726Z,22.10
2022-10-12T09:05:55.299Z,22.10
2022-10-12T09:08:33.927Z,22.10
2022-10-12T09:11:25.333Z,22.10
2022-10-12T09:14:03.613Z,22.10
2022-10-12T09:16:36.937Z,22.00
2022-10-12T09:19:16.470Z,22.10
2022-10-12T09:21:48.599Z,22.10
2022-10-12T09:24:20.812Z,22.10
2022-10-12T09:26:53.419Z,22.10
2022-10-12T09:29:28.259Z,22.10
2022-10-12T09:32:22.000Z,22.10
2022-10-12T09:34:52.940Z,22.10
2022-10-12T09:37:24.662Z,22.10
2022-10-12T09:39:54.587Z,22.10
2022-10-12T09:42:24.107Z,22.10
2022-10-12T09:44:58.773Z,22.10
2022-10-12T09:47:31.515Z,22.10
2022-10-12T09:50:04.418Z,22.10
2022-10-12T09:52:45.898Z,22.10
2022-10-12T09:57:58.966Z,22.10
2022-10-12T10:00:31.491Z,22.10
2022-10-12T10:03:02.180Z,22.10
2022-10-12T10:05:35.145Z,22.10
2022-10-12T10:08:20.282Z,22.20
2022-10-12T10:10:51.624Z,22.20
2022-10-12T10:13:22.025Z,22.20
2022-10-12T10:15:53.809Z,22.20
2022-10-12T10:18:30.389Z,22.20
2022-10-12T10:21:02.218Z,22.20
2022-10-12T10:23:34.187Z,22.30
2022-10-12T10:26:07.889Z,22.30
2022-10-12T10:28:39.099Z,22.30
2022-10-12T10:31:17.753Z,22.30
2022-10-12T10:33:47.515Z,22.30
2022-10-12T10:36:22.938Z,22.30
2022-10-12T10:38:57.640Z,22.30
2022-10-12T10:41:29.722Z,22.30
2022-10-12T10:43:59.210Z,22.30
2022-10-12T10:46:32.108Z,22.30
2022-10-12T10:49:06.620Z,22.30
2022-10-12T10:51:48.098Z,22.30
2022-10-12T10:54:31.071Z,22.40
2022-10-12T10:57:04.969Z,22.40
2022-10-12T10:59:43.803Z,22.40
2022-10-12T11:02:30.779Z,22.40
2022-10-12T11:05:06.876Z,22.30
2022-10-12T11:07:44.117Z,22.40
2022-10-12T11:10:23.483Z,22.40
2022-10-12T11:12:58.325Z,22.40
2022-10-12T11:15:33.711Z,22.40
2022-10-12T11:18:12.353Z,22.40
2022-10-12T11:20:51.692Z,22.40
2022-10-12T11:23:42.084Z,22.40
2022-10-12T11:26:18.634Z,22.40
2022-10-12T11:28:48.394Z,22.40
2022-10-12T11:31:22.798Z,22.40
2022-10-12T11:33:54.137Z,22.50
2022-10-12T11:36:27.584Z,22.60
2022-10-12T11:39:06.664Z,22.60
2022-10-12T11:42:03.323Z,22.70
2022-10-12T11:44:42.533Z,22.70
2022-10-12T11:47:17.610Z,22.70
2022-10-12T11:49:55.696Z,22.70
2022-10-12T11:52:28.902Z,22.70
2022-10-12T11:55:09.157Z,22.80
2022-10-12T11:57:39.821Z,22.80
2022-10-12T12:00:20.045Z,22.80
2022-10-12T12:02:55.866Z,22.90
2022-10-12T12:05:25.468Z,22.90
2022-10-12T12:07:58.045Z,22.90
2022-10-12T12:10:53.929Z,22.90
2022-10-12T12:13:27.331Z,23.00
2022-10-12T12:16:35.473Z,22.90
2022-10-12T12:19:36.191Z,23.00
2022-10-12T12:22:30.125Z,23.00
2022-10-12T12:25:28.949Z,23.00
2022-10-12T12:28:02.719Z,23.00
2022-10-12T12:30:37.107Z,23.00
2022-10-12T12:33:26.825Z,23.10
2022-10-12T12:35:58.529Z,23.10
2022-10-12T12:38:32.263Z,23.10
2022-10-12T12:41:12.051Z,23.10
2022-10-12T12:43:56.331Z,23.10
2022-10-12T12:46:28.386Z,23.10
2022-10-12T12:49:02.776Z,23.10
2022-10-12T12:51:39.494Z,23.10
2022-10-12T12:54:17.399Z,23.10
2022-10-12T12:57:17.692Z,23.10
2022-10-12T13:00:19.796Z,23.10
2022-10-12T13:03:20.052Z,23.10
2022-10-12T13:06:22.891Z,23.10
2022-10-12T13:09:09.920Z,23.10
2022-10-12T13:11:54.859Z,23.10
2022-10-12T13:14:49.024Z,23.10
2022-10-12T13:17:48.404Z,23.10
2022-10-12T13:20:20.552Z,23.10
2022-10-12T13:22:53.550Z,23.10
2022-10-12T13:25:30.870Z,23.10
2022-10-12T13:28:01.525Z,23.10
2022-10-12T13:30:36.641Z,23.10
2022-10-12T13:33:16.947Z,23.10
2022-10-12T13:35:53.521Z,23.10
2022-10-12T13:38:24.890Z,23.10
2022-10-12T13:41:02.623Z,23.10
2022-10-12T13:43:35.830Z,23.10
2022-10-12T13:46:05.667Z,23.00
2022-10-12T13:51:27.617Z,23.10
2022-10-12T13:53:58.912Z,23.00
2022-10-12T13:56:30.178Z,23.10
2022-10-12T13:59:05.579Z,23.10
2022-10-12T14:01:50.056Z,23.00
2022-10-12T14:04:21.150Z,23.10
2022-10-12T14:06:56.816Z,23.10
2022-10-12T14:09:28.723Z,23.10
2022-10-12T14:11:58.773Z,23.00
2022-10-12T14:14:33.942Z,23.00
2022-10-12T14:17:03.630Z,23.00
2022-10-12T14:19:37.328Z,23.00
2022-10-12T14:22:07.255Z,23.00
2022-10-12T14:24:37.708Z,23.00
2022-10-12T14:27:08.861Z,23.00
2022-10-12T14:29:44.021Z,23.00
2022-10-12T14:32:39.712Z,23.00
2022-10-12T14:35:22.076Z,23.00
2022-10-12T14:37:52.739Z,23.00
2022-10-12T14:40:32.670Z,23.00
2022-10-12T14:43:05.078Z,22.90
2022-10-12T14:45:35.246Z,22.90
2022-10-12T14:48:05.820Z,23.00
2022-10-12T14:50:36.783Z,23.00
2022-10-12T14:53:11.288Z,23.00
2022-10-12T14:55:41.613Z,23.00
2022-10-12T14:58:16.359Z,23.00
2022-10-12T15:00:46.280Z,23.00
2022-10-12T15:03:18.134Z,23.00
2022-10-12T15:05:48.855Z,23.00
2022-10-12T15:08:18.407Z,23.00
2022-10-12T15:10:51.295Z,23.00
2022-10-12T15:13:20.642Z,22.90
2022-10-12T15:15:50.739Z,23.00
2022-10-12T15:18:20.198Z,23.00
2022-10-12T15:20:51.075Z,23.00
2022-10-12T15:23:21.208Z,23.00
2022-10-12T15:25:52.927Z,23.00
2022-10-12T15:28:23.538Z,23.00
2022-10-12T15:33:45.357Z,23.00
2022-10-12T15:36:17.295Z,23.00
2022-10-12T15:38:47.666Z,23.00
2022-10-12T15:41:19.777Z,23.00
2022-10-12T15:43:49.286Z,23.00
2022-10-12T15:46:20.076Z,23.00
2022-10-12T15:48:50.426Z,23.00
2022-10-12T15:51:24.104Z,23.00
2022-10-12T15:53:55.392Z,23.00
2022-10-12T15:56:25.487Z,23.00
2022-10-12T15:58:55.513Z,23.00
2022-10-12T16:01:24.983Z,23.00
2022-10-12T16:03:54.739Z,23.00
2022-10-12T16:06:26.223Z,23.00
2022-10-12T16:08:56.129Z,23.00
2022-10-12T16:11:26.109Z,23.00
2022-10-12T16:13:57.028Z,23.00
2022-10-12T16:16:27.953Z,23.00
2022-10-12T16:18:57.906Z,23.00
2022-10-12T16:21:29.161Z,23.00
2022-10-12T16:23:58.475Z,23.00
2022-10-12T16:26:29.126Z,23.00
2022-10-12T16:28:59.200Z,22.90
2022-10-12T16:31:28.656Z,22.90
2022-10-12T16:33:59.435Z,22.90
2022-10-12T16:36:30.291Z,22.90
2022-10-12T16:39:00.364Z,22.90
2022-10-12T16:41:33.301Z,22.90
2022-10-12T16:44:04.892Z,22.90
2022-10-12T16:46:34.088Z,22.90
2022-10-12T16:49:03.360Z,22.90
2022-10-12T16:51:34.061Z,22.90
2022-10-12T16:54:03.392Z,22.90
2022-10-12T16:56:37.081Z,22.90
2022-10-12T16:59:09.399Z,22.90
2022-10-12T17:01:39.572Z,22.90
2022-10-12T17:04:09.337Z,22.90
2022-10-12T17:06:42.560Z,22.90
2022-10-12T17:09:12.148Z,22.90
2022-10-12T17:11:42.110Z,22.90
2022-10-12T17:14:14.812Z,22.90
2022-10-12T17:16:57.164Z,22.90
2022-10-12T17:19:28.831Z,22.90
2022-10-12T17:22:01.375Z,22.90
2022-10-12T17:24:31.770Z,22.90
2022-10-12T17:27:01.263Z,22.90
2022-10-12T17:29:32.631Z,22.90
2022-10-12T17:32:01.984Z,22.90
2022-10-12T17:34:37.778Z,22.90
2022-10-12T17:37:12.306Z,22.90
2022-10-12T17:39:43.106Z,22.90
2022-10-12T17:42:12.554Z,22.90
2022-10-12T17:44:42.098Z,22.90
2022-10-12T17:47:11.403Z,22.90
2022-10-12T17:49:40.629Z,22.90
2022-10-12T17:52:11.396Z,22.90
2022-10-12T17:54:40.933Z,22.90
2022-10-12T17:57:10.202Z,22.90
2022-10-12T17:59:39.581Z,22.90
2022-10-12T18:02:09.760Z,22.80
2022-10-12T18:04:39.489Z,22.90
2022-10-12T18:07:08.790Z,22.80
2022-10-12T18:09:39.648Z,22.80
2022-10-12T18:12:09.043Z,22.80
2022-10-12T18:14:38.249Z,22.80
2022-10-12T18:17:07.482Z,22.80
2022-10-12T18:19:36.930Z,22.80
2022-10-12T18:22:06.319Z,22.80
2022-10-12T18:24:35.560Z,22.80
2022-10-12T18:27:06.323Z,22.80
2022-10-12T18:29:35.782Z,22.80
2022-10-12T18:32:07.009Z,22.80
2022-10-12T18:34:37.236Z,22.80
2022-10-12T18:37:07.154Z,22.80
2022-10-12T18:39:36.557Z,22.80
2022-10-12T18:42:07.833Z,22.80
2022-10-12T18:44:38.150Z,22.80
2022-10-12T18:47:08.164Z,22.80
2022-10-12T18:49:37.744Z,22.80
2022-10-12T18:52:08.280Z,22.80
2022-10-12T18:54:38.997Z,22.80
2022-10-12T18:57:11.645Z,22.80
2022-10-12T18:59:42.092Z,22.80
2022-10-12T19:02:12.435Z,22.80
2022-10-12T19:04:42.607Z,22.80
2022-10-12T19:07:12.860Z,22.80
2022-10-12T19:09:43.901Z,22.80
2022-10-12T19:12:17.202Z,22.80
2022-10-12T19:14:48.180Z,22.80
2022-10-12T19:17:17.907Z,22.80
2022-10-12T19:19:47.674Z,22.80
2022-10-12T19:22:18.215Z,22.80
2022-10-12T19:24:48.753Z,22.80
2022-10-12T19:27:19.914Z,22.80
2022-10-12T19:29:49.492Z,22.80
2022-10-12T19:32:19.048Z,22.80
2022-10-12T19:34:51.728Z,22.80
2022-10-12T19:37:21.934Z,22.80
2022-10-12T19:39:51.946Z,22.80
2022-10-12T19:42:23.287Z,22.80
2022-10-12T19:44:53.692Z,22.80
2022-10-12T19:47:23.140Z,22.80
2022-10-12T19:49:53.970Z,22.80
2022-10-12T19:52:23.983Z,22.80
2022-10-12T19:54:53.996Z,22.80
2022-10-12T19:57:25.690Z,22.80
2022-10-12T19:59:55.717Z,22.80
2022-10-12T20:02:25.399Z,22.80
2022-10-12T20:04:56.643Z,22.80
2022-10-12T20:07:26.378Z,22.70
2022-10-12T20:09:56.294Z,22.80
2022-10-12T20:12:28.060Z,22.80
2022-10-12T20:14:57.476Z,22.80
2022-10-12T20:17:26.647Z,22.80
2022-10-12T20:19:56.920Z,22.80
2022-10-12T20:22:26.112Z,22.80
2022-10-12T20:24:55.472Z,22.70
2022-10-12T20:27:24.787Z,22.70
2022-10-12T20:29:55.508Z,22.70
2022-10-12T20:32:24.627Z,22.70
2022-10-12T20:34:55.661Z,22.70
2022-10-12T20:37:25.105Z,22.70
2022-10-12T20:39:54.666Z,22.70
2022-10-12T20:42:24.331Z,22.70
2022-10-12T20:44:55.224Z,22.70
2022-10-12T20:47:24.453Z,22.70
2022-10-12T20:49:53.809Z,22.70
2022-10-12T20:52:22.930Z,22.70
2022-10-12T20:54:52.864Z,22.70
2022-10-12T20:57:22.179Z,22.70
2022-10-12T20:59:51.322Z,22.70
2022-10-12T21:02:22.074Z,22.60
2022-10-12T21:04:51.912Z,22.60
2022-10-12T21:07:21.399Z,22.60
2022-10-12T21:09:52.442Z,22.60
2022-10-12T21:12:21.736Z,22.60
2022-10-12T21:14:51.017Z,22.60
2022-10-12T21:17:21.850Z,22.60
2022-10-12T21:19:52.578Z,22.60
2022-10-12T21:22:21.946Z,22.60
2022-10-12T21:24:51.895Z,22.60
2022-10-12T21:27:21.103Z,22.60
2022-10-12T21:29:50.216Z,22.60
2022-10-12T21:32:19.507Z,22.60
2022-10-12T21:34:50.695Z,22.60
2022-10-12T21:37:20.451Z,22.50
2022-10-12T21:39:53.524Z,22.50
2022-10-12T21:42:23.671Z,22.50
2022-10-12T21:44:52.850Z,22.50
2022-10-12T21:47:22.044Z,22.50
2022-10-12T21:49:52.599Z,22.50
2022-10-12T21:52:21.944Z,22.50
2022-10-12T21:54:51.200Z,22.50
2022-10-12T21:57:20.339Z,22.50
2022-10-12T21:59:50.031Z,22.50
2022-10-12T22:02:19.624Z,22.50
2022-10-12T22:04:49.296Z,22.50
2022-10-12T22:07:19.938Z,22.50
2022-10-12T22:09:49.764Z,22.50
2022-10-12T22:12:19.167Z,22.40
2022-10-12T22:14:48.740Z,22.40
2022-10-12T22:17:20.383Z,22.40
2022-10-12T22:19:49.748Z,22.40
2022-10-12T22:22:20.584Z,22.40
2022-10-12T22:24:49.988Z,22.40
2022-10-12T22:27:19.183Z,22.40
2022-10-12T22:29:48.397Z,22.40
2022-10-12T22:32:17.868Z,22.40
2022-10-12T22:34:47.350Z,22.40
2022-10-12T22:37:16.480Z,22.40
2022-10-12T22:39:47.143Z,22.40
2022-10-12T22:42:16.543Z,22.30
2022-10-12T22:44:45.961Z,22.30
2022-10-12T22:47:15.131Z,22.40
2022-10-12T22:49:44.281Z,22.30
2022-10-12T22:52:13.380Z,22.30
2022-10-12T22:54:46.827Z,22.30
2022-10-12T22:57:16.001Z,22.30
2022-10-12T22:59:45.200Z,22.30
2022-10-12T23:02:14.443Z,22.30
2022-10-12T23:04:43.614Z,22.30
2022-10-12T23:07:12.786Z,22.30
2022-10-12T23:09:44.316Z,22.30
2022-10-12T23:12:15.026Z,22.30
2022-10-12T23:14:44.622Z,22.30
2022-10-12T23:17:13.756Z,22.30
2022-10-12T23:19:42.953Z,22.20
2022-10-12T23:22:12.115Z,22.20
2022-10-12T23:24:42.211Z,22.20
2022-10-12T23:27:11.427Z,22.20
2022-10-12T23:29:41.989Z,22.20
2022-10-12T23:32:12.881Z,22.20
2022-10-12T23:34:42.132Z,22.20
2022-10-12T23:37:11.324Z,22.20
2022-10-12T23:39:40.547Z,22.20
2022-10-12T23:42:12.787Z,22.20
2022-10-12T23:44:43.579Z,22.20
2022-10-12T23:47:12.761Z,22.20
2022-10-12T23:49:41.886Z,22.20
2022-10-12T23:52:12.758Z,22.20
2022-10-12T23:54:42.080Z,22.20
2022-10-12T23:57:34.378Z,22.10
